Terminal Aerodrome Forecast
Issued by NWS Chicago, IL

Home | Current Version | Previous Version | Graphics & Text | Print | Product List | Glossary On
Versions: 1 2 3 4 5 6 7 8 9 10 11 12 13 14 15 16 17 18 19 20 21 22 23 24 25 26
920
FTUS43 KLOT 232057 AAA
TAFRFD
TAF AMD
KRFD 232057Z 2321/2418 18013G18KT P6SM SCT045 BKN250
     FM240000 16009KT P6SM SCT040 BKN250
     FM240700 17010KT P6SM VCSH BKN050
      TEMPO 2411/2415 3SM TSRA SCT010 OVC018CB
     FM241500 20012G20KT P6SM VCTS BKN025CB OVC050=

USA.gov is the U.S. government's official web portal to all federal, state and local government web resources and services.